sensor_id;sensor_type;location;lat;lon;timestamp;pressure;altitude;pressure_sealevel;temperature;humidity
11345;BME280;5727;42.600;23.028;2022-07-06T00:00:12;93687.03;;;19.26;100.00
11345;BME280;5727;42.600;23.028;2022-07-06T00:02:40;93684.00;;;19.21;100.00
11345;BME280;5727;42.600;23.028;2022-07-06T00:05:07;93684.78;;;19.25;100.00
11345;BME280;5727;42.600;23.028;2022-07-06T00:07:36;93689.72;;;19.19;100.00
11345;BME280;5727;42.600;23.028;2022-07-06T00:10:03;93695.38;;;19.21;100.00
11345;BME280;5727;42.600;23.028;2022-07-06T00:12:30;93696.53;;;19.20;100.00
11345;BME280;5727;42.600;23.028;2022-07-06T00:14:56;93709.78;;;19.06;100.00
11345;BME280;5727;42.600;23.028;2022-07-06T00:17:23;93693.47;;;18.97;100.00
11345;BME280;5727;42.600;23.028;2022-07-06T00:19:50;93696.91;;;18.94;100.00
11345;BME280;5727;42.600;23.028;2022-07-06T00:22:17;93694.22;;;18.94;100.00
11345;BME280;5727;42.600;23.028;2022-07-06T00:24:45;93690.81;;;18.86;100.00
11345;BME280;5727;42.600;23.028;2022-07-06T00:27:12;93683.97;;;18.82;100.00
11345;BME280;5727;42.600;23.028;2022-07-06T00:29:39;93684.75;;;18.93;100.00
11345;BME280;5727;42.600;23.028;2022-07-06T00:32:09;93682.09;;;19.07;100.00
11345;BME280;5727;42.600;23.028;2022-07-06T00:34:36;93683.25;;;19.20;100.00
11345;BME280;5727;42.600;23.028;2022-07-06T00:37:04;93682.50;;;19.34;100.00
11345;BME280;5727;42.600;23.028;2022-07-06T00:39:31;93681.00;;;19.43;100.00
11345;BME280;5727;42.600;23.028;2022-07-06T00:41:59;93677.19;;;19.44;100.00
11345;BME280;5727;42.600;23.028;2022-07-06T00:44:26;93664.28;;;19.57;100.00
11345;BME280;5727;42.600;23.028;2022-07-06T00:46:54;93665.41;;;19.63;100.00
11345;BME280;5727;42.600;23.028;2022-07-06T00:49:21;93653.59;;;19.67;100.00
11345;BME280;5727;42.600;23.028;2022-07-06T00:52:05;93647.13;;;19.75;100.00
11345;BME280;5727;42.600;23.028;2022-07-06T00:54:32;93639.91;;;19.79;100.00
11345;BME280;5727;42.600;23.028;2022-07-06T00:57:01;93639.91;;;19.83;100.00
11345;BME280;5727;42.600;23.028;2022-07-06T00:59:28;93641.78;;;19.89;100.00
11345;BME280;5727;42.600;23.028;2022-07-06T01:01:55;93639.50;;;19.91;100.00
11345;BME280;5727;42.600;23.028;2022-07-06T01:04:21;93648.22;;;19.95;100.00
11345;BME280;5727;42.600;23.028;2022-07-06T01:06:48;93653.56;;;19.95;100.00
11345;BME280;5727;42.600;23.028;2022-07-06T01:09:16;93654.31;;;19.92;100.00
11345;BME280;5727;42.600;23.028;2022-07-06T01:11:43;93658.88;;;19.95;100.00
11345;BME280;5727;42.600;23.028;2022-07-06T01:14:12;93675.19;;;19.90;100.00
11345;BME280;5727;42.600;23.028;2022-07-06T01:16:40;93668.00;;;19.87;100.00
11345;BME280;5727;42.600;23.028;2022-07-06T01:19:07;93668.38;;;19.89;100.00
11345;BME280;5727;42.600;23.028;2022-07-06T01:21:37;93662.69;;;19.87;100.00
11345;BME280;5727;42.600;23.028;2022-07-06T01:24:04;93676.72;;;19.91;100.00
11345;BME280;5727;42.600;23.028;2022-07-06T01:26:32;93680.16;;;19.81;100.00
11345;BME280;5727;42.600;23.028;2022-07-06T01:28:59;93673.38;;;19.63;100.00
11345;BME280;5727;42.600;23.028;2022-07-06T01:31:26;93673.78;;;19.47;100.00
11345;BME280;5727;42.600;23.028;2022-07-06T01:33:55;93674.94;;;19.36;100.00
11345;BME280;5727;42.600;23.028;2022-07-06T01:36:22;93673.78;;;19.44;100.00
11345;BME280;5727;42.600;23.028;2022-07-06T01:38:51;93668.84;;;19.39;100.00
11345;BME280;5727;42.600;23.028;2022-07-06T01:41:19;93663.53;;;19.35;100.00
11345;BME280;5727;42.600;23.028;2022-07-06T01:43:47;93660.88;;;19.39;100.00
11345;BME280;5727;42.600;23.028;2022-07-06T01:46:14;93663.53;;;19.28;100.00
11345;BME280;5727;42.600;23.028;2022-07-06T01:48:41;93663.16;;;19.44;100.00
11345;BME280;5727;42.600;23.028;2022-07-06T01:53:55;93665.78;;;19.68;100.00
11345;BME280;5727;42.600;23.028;2022-07-06T01:56:22;93665.75;;;19.75;100.00
11345;BME280;5727;42.600;23.028;2022-07-06T01:58:49;93663.44;;;19.84;100.00
11345;BME280;5727;42.600;23.028;2022-07-06T02:01:18;93658.50;;;19.93;100.00
11345;BME280;5727;42.600;23.028;2022-07-06T02:03:45;93656.59;;;19.97;100.00
11345;BME280;5727;42.600;23.028;2022-07-06T02:06:12;93664.19;;;19.99;100.00
11345;BME280;5727;42.600;23.028;2022-07-06T02:08:40;93672.91;;;19.96;100.00
11345;BME280;5727;42.600;23.028;2022-07-06T02:11:09;93671.41;;;19.91;100.00
11345;BME280;5727;42.600;23.028;2022-07-06T02:13:36;93663.81;;;19.93;100.00
11345;BME280;5727;42.600;23.028;2022-07-06T02:16:04;93667.22;;;19.90;100.00
11345;BME280;5727;42.600;23.028;2022-07-06T02:18:31;93671.84;;;19.76;100.00
11345;BME280;5727;42.600;23.028;2022-07-06T02:20:57;93668.06;;;19.66;100.00
11345;BME280;5727;42.600;23.028;2022-07-06T02:23:24;93667.66;;;19.68;100.00
11345;BME280;5727;42.600;23.028;2022-07-06T02:25:52;93660.84;;;19.56;100.00
11345;BME280;5727;42.600;23.028;2022-07-06T02:28:20;93666.53;;;19.58;100.00
11345;BME280;5727;42.600;23.028;2022-07-06T02:30:47;93668.44;;;19.61;100.00
11345;BME280;5727;42.600;23.028;2022-07-06T02:33:14;93670.34;;;19.61;100.00
11345;BME280;5727;42.600;23.028;2022-07-06T02:35:40;93670.34;;;19.50;100.00
11345;BME280;5727;42.600;23.028;2022-07-06T02:38:08;93657.84;;;19.47;100.00
11345;BME280;5727;42.600;23.028;2022-07-06T02:40:35;93662.00;;;19.45;100.00
11345;BME280;5727;42.600;23.028;2022-07-06T02:43:02;93655.53;;;19.42;100.00
11345;BME280;5727;42.600;23.028;2022-07-06T02:45:30;93655.19;;;19.47;100.00
11345;BME280;5727;42.600;23.028;2022-07-06T02:47:57;93658.97;;;19.46;100.00
11345;BME280;5727;42.600;23.028;2022-07-06T02:50:24;93658.22;;;19.46;100.00
11345;BME280;5727;42.600;23.028;2022-07-06T02:52:51;93657.84;;;19.47;100.00
11345;BME280;5727;42.600;23.028;2022-07-06T02:55:18;93656.69;;;19.48;100.00
11345;BME280;5727;42.600;23.028;2022-07-06T02:57:44;93664.66;;;19.48;100.00
11345;BME280;5727;42.600;23.028;2022-07-06T03:00:12;93657.84;;;19.47;100.00
11345;BME280;5727;42.600;23.028;2022-07-06T03:02:40;93663.53;;;19.46;100.00
11345;BME280;5727;42.600;23.028;2022-07-06T03:05:07;93658.97;;;19.43;100.00
11345;BME280;5727;42.600;23.028;2022-07-06T03:07:34;93661.25;;;19.30;100.00
11345;BME280;5727;42.600;23.028;2022-07-06T03:10:01;93653.25;;;19.23;100.00
11345;BME280;5727;42.600;23.028;2022-07-06T03:12:28;93661.97;;;19.27;100.00
11345;BME280;5727;42.600;23.028;2022-07-06T03:14:54;93665.78;;;19.30;100.00
11345;BME280;5727;42.600;23.028;2022-07-06T03:17:21;93662.03;;;19.34;100.00
11345;BME280;5727;42.600;23.028;2022-07-06T03:19:49;93665.06;;;19.36;100.00
11345;BME280;5727;42.600;23.028;2022-07-06T03:22:17;93674.91;;;19.39;100.00
11345;BME280;5727;42.600;23.028;2022-07-06T03:24:44;93679.09;;;19.40;100.00
11345;BME280;5727;42.600;23.028;2022-07-06T03:27:11;93684.03;;;19.45;100.00
11345;BME280;5727;42.600;23.028;2022-07-06T03:29:38;93674.91;;;19.39;100.00
11345;BME280;5727;42.600;23.028;2022-07-06T03:32:05;93663.91;;;19.44;100.00
11345;BME280;5727;42.600;23.028;2022-07-06T03:34:32;93675.28;;;19.48;100.00
11345;BME280;5727;42.600;23.028;2022-07-06T03:37:00;93677.94;;;19.48;100.00
11345;BME280;5727;42.600;23.028;2022-07-06T03:39:27;93681.72;;;19.54;100.00
11345;BME280;5727;42.600;23.028;2022-07-06T03:41:54;93681.34;;;19.52;100.00
11345;BME280;5727;42.600;23.028;2022-07-06T03:44:20;93679.06;;;19.54;100.00
11345;BME280;5727;42.600;23.028;2022-07-06T03:46:47;93685.91;;;19.55;100.00
11345;BME280;5727;42.600;23.028;2022-07-06T03:49:15;93690.84;;;19.57;100.00
11345;BME280;5727;42.600;23.028;2022-07-06T03:51:41;93690.47;;;19.58;100.00
11345;BME280;5727;42.600;23.028;2022-07-06T03:54:09;93684.00;;;19.66;100.00
11345;BME280;5727;42.600;23.028;2022-07-06T03:56:36;93691.94;;;19.73;100.00
11345;BME280;5727;42.600;23.028;2022-07-06T03:59:04;93683.22;;;19.76;100.00
11345;BME280;5727;42.600;23.028;2022-07-06T04:01:31;93691.94;;;19.84;100.00
11345;BME280;5727;42.600;23.028;2022-07-06T04:03:58;93693.06;;;19.86;100.00
11345;BME280;5727;42.600;23.028;2022-07-06T04:06:24;93683.56;;;19.92;100.00
11345;BME280;5727;42.600;23.028;2022-07-06T04:08:51;93683.94;;;19.94;100.00
11345;BME280;5727;42.600;23.028;2022-07-06T04:11:20;93684.28;;;20.00;100.00
11345;BME280;5727;42.600;23.028;2022-07-06T04:13:46;93682.78;;;20.02;100.00
11345;BME280;5727;42.600;23.028;2022-07-06T04:16:13;93688.44;;;20.12;100.00
11345;BME280;5727;42.600;23.028;2022-07-06T04:18:40;93683.13;;;20.19;100.00
11345;BME280;5727;42.600;23.028;2022-07-06T04:21:07;93680.84;;;20.21;100.00
11345;BME280;5727;42.600;23.028;2022-07-06T04:23:34;93681.97;;;20.20;100.00
11345;BME280;5727;42.600;23.028;2022-07-06T04:26:01;93691.09;;;20.26;100.00
11345;BME280;5727;42.600;23.028;2022-07-06T04:28:29;93694.09;;;20.31;100.00
11345;BME280;5727;42.600;23.028;2022-07-06T04:30:56;93698.28;;;20.32;100.00
11345;BME280;5727;42.600;23.028;2022-07-06T04:33:23;93706.25;;;20.29;100.00
11345;BME280;5727;42.600;23.028;2022-07-06T04:35:49;93708.94;;;20.29;100.00
11345;BME280;5727;42.600;23.028;2022-07-06T04:38:16;93710.09;;;20.24;100.00
11345;BME280;5727;42.600;23.028;2022-07-06T04:40:43;93715.75;;;20.37;100.00
11345;BME280;5727;42.600;23.028;2022-07-06T04:43:11;93719.53;;;20.43;100.00
11345;BME280;5727;42.600;23.028;2022-07-06T04:45:40;93721.84;;;20.37;100.00
11345;BME280;5727;42.600;23.028;2022-07-06T04:48:07;93731.75;;;20.19;100.00
11345;BME280;5727;42.600;23.028;2022-07-06T04:50:34;93736.72;;;19.96;100.00
11345;BME280;5727;42.600;23.028;2022-07-06T04:53:01;93741.72;;;19.76;100.00
11345;BME280;5727;42.600;23.028;2022-07-06T04:55:28;93748.53;;;19.63;100.00
11345;BME280;5727;42.600;23.028;2022-07-06T04:57:54;93753.84;;;19.60;100.00
11345;BME280;5727;42.600;23.028;2022-07-06T05:00:21;93757.66;;;19.45;100.00
11345;BME280;5727;42.600;23.028;2022-07-06T05:02:49;93748.91;;;19.44;100.00
11345;BME280;5727;42.600;23.028;2022-07-06T05:05:16;93744.75;;;19.43;100.00
11345;BME280;5727;42.600;23.028;2022-07-06T05:07:43;93745.50;;;19.58;100.00
11345;BME280;5727;42.600;23.028;2022-07-06T05:10:11;93751.19;;;19.84;100.00
11345;BME280;5727;42.600;23.028;2022-07-06T05:12:38;93750.81;;;19.89;100.00
11345;BME280;5727;42.600;23.028;2022-07-06T05:15:07;93754.97;;;20.01;100.00
11345;BME280;5727;42.600;23.028;2022-07-06T05:17:34;93761.41;;;20.00;100.00
11345;BME280;5727;42.600;23.028;2022-07-06T05:20:02;93769.00;;;20.16;100.00
11345;BME280;5727;42.600;23.028;2022-07-06T05:22:29;93765.59;;;20.26;100.00
11345;BME280;5727;42.600;23.028;2022-07-06T05:24:56;93775.78;;;20.45;100.00
11345;BME280;5727;42.600;23.028;2022-07-06T05:27:23;93772.34;;;20.55;100.00
11345;BME280;5727;42.600;23.028;2022-07-06T05:29:50;93780.28;;;20.69;100.00
11345;BME280;5727;42.600;23.028;2022-07-06T05:32:16;93784.84;;;20.65;100.00
11345;BME280;5727;42.600;23.028;2022-07-06T05:34:43;93786.34;;;20.66;100.00
11345;BME280;5727;42.600;23.028;2022-07-06T05:37:11;93788.59;;;20.81;100.00
11345;BME280;5727;42.600;23.028;2022-07-06T05:39:38;93798.78;;;21.04;100.00
11345;BME280;5727;42.600;23.028;2022-07-06T05:42:09;93796.00;;;21.25;100.00
11345;BME280;5727;42.600;23.028;2022-07-06T05:44:35;93795.13;;;21.42;100.00
11345;BME280;5727;42.600;23.028;2022-07-06T05:47:03;93802.59;;;21.65;100.00
11345;BME280;5727;42.600;23.028;2022-07-06T05:49:43;93804.41;;;21.75;100.00
11345;BME280;5727;42.600;23.028;2022-07-06T05:52:29;93806.31;;;21.81;100.00
11345;BME280;5727;42.600;23.028;2022-07-06T05:54:56;93806.31;;;21.81;100.00
11345;BME280;5727;42.600;23.028;2022-07-06T05:57:23;93811.56;;;21.89;100.00
11345;BME280;5727;42.600;23.028;2022-07-06T05:59:50;93812.38;;;21.78;100.00
11345;BME280;5727;42.600;23.028;2022-07-06T06:02:16;93808.03;;;21.51;100.00
11345;BME280;5727;42.600;23.028;2022-07-06T06:04:43;93802.06;;;21.29;100.00
11345;BME280;5727;42.600;23.028;2022-07-06T06:07:10;93798.88;;;21.55;100.00
11345;BME280;5727;42.600;23.028;2022-07-06T06:09:38;93805.75;;;21.46;100.00
11345;BME280;5727;42.600;23.028;2022-07-06T06:12:06;93800.09;;;21.37;100.00
11345;BME280;5727;42.600;23.028;2022-07-06T06:14:33;93791.44;;;21.26;100.00
11345;BME280;5727;42.600;23.028;2022-07-06T06:16:59;93789.06;;;21.42;100.00
11345;BME280;5727;42.600;23.028;2022-07-06T06:19:26;93779.13;;;21.42;100.00
11345;BME280;5727;42.600;23.028;2022-07-06T06:21:53;93783.22;;;21.54;100.00
11345;BME280;5727;42.600;23.028;2022-07-06T06:24:20;93785.66;;;21.38;100.00
11345;BME280;5727;42.600;23.028;2022-07-06T06:26:50;93783.47;;;21.22;100.00
11345;BME280;5727;42.600;23.028;2022-07-06T06:29:17;93785.88;;;20.95;100.00
11345;BME280;5727;42.600;23.028;2022-07-06T06:31:44;93789.25;;;21.07;100.00
11345;BME280;5727;42.600;23.028;2022-07-06T06:34:10;93784.63;;;21.14;100.00
11345;BME280;5727;42.600;23.028;2022-07-06T06:36:37;93776.19;;;21.26;100.00
11345;BME280;5727;42.600;23.028;2022-07-06T06:39:04;93781.91;;;21.28;100.00
11345;BME280;5727;42.600;23.028;2022-07-06T06:41:31;93774.00;;;21.14;100.00
11345;BME280;5727;42.600;23.028;2022-07-06T06:43:59;93777.00;;;21.20;100.00
11345;BME280;5727;42.600;23.028;2022-07-06T06:46:26;93778.38;;;21.38;100.00
11345;BME280;5727;42.600;23.028;2022-07-06T06:48:53;93779.84;;;21.53;100.00
11345;BME280;5727;42.600;23.028;2022-07-06T06:51:19;93779.13;;;21.42;100.00
11345;BME280;5727;42.600;23.028;2022-07-06T06:53:47;93782.63;;;21.36;100.00
11345;BME280;5727;42.600;23.028;2022-07-06T06:56:14;93774.66;;;21.25;100.00
11345;BME280;5727;42.600;23.028;2022-07-06T06:58:41;93777.69;;;21.34;100.00
11345;BME280;5727;42.600;23.028;2022-07-06T07:01:09;93783.34;;;21.36;100.00
11345;BME280;5727;42.600;23.028;2022-07-06T07:03:36;93774.34;;;21.16;100.00
11345;BME280;5727;42.600;23.028;2022-07-06T07:06:03;93771.63;;;21.23;100.00
11345;BME280;5727;42.600;23.028;2022-07-06T07:08:29;93773.06;;;21.42;100.00
11345;BME280;5727;42.600;23.028;2022-07-06T07:10:56;93771.34;;;21.65;100.00
11345;BME280;5727;42.600;23.028;2022-07-06T07:13:23;93768.19;;;21.77;100.00
11345;BME280;5727;42.600;23.028;2022-07-06T07:15:50;93760.47;;;21.94;100.00
11345;BME280;5727;42.600;23.028;2022-07-06T07:18:18;93750.38;;;22.12;100.00
11345;BME280;5727;42.600;23.028;2022-07-06T07:20:45;93763.00;;;22.08;100.00
11345;BME280;5727;42.600;23.028;2022-07-06T07:23:12;93761.84;;;22.09;100.00
11345;BME280;5727;42.600;23.028;2022-07-06T07:25:40;93762.28;;;22.41;100.00
11345;BME280;5727;42.600;23.028;2022-07-06T07:28:06;93764.28;;;22.67;100.00
11345;BME280;5727;42.600;23.028;2022-07-06T07:30:34;93768.75;;;22.77;100.00
11345;BME280;5727;42.600;23.028;2022-07-06T07:33:00;93781.41;;;22.36;100.00
11345;BME280;5727;42.600;23.028;2022-07-06T07:35:29;93775.56;;;22.11;100.00
11345;BME280;5727;42.600;23.028;2022-07-06T07:37:56;93765.41;;;21.95;100.00
11345;BME280;5727;42.600;23.028;2022-07-06T07:40:23;93772.31;;;22.30;100.00
11345;BME280;5727;42.600;23.028;2022-07-06T07:42:49;93780.72;;;22.65;100.00
11345;BME280;5727;42.600;23.028;2022-07-06T07:45:16;93774.97;;;22.67;100.00
11345;BME280;5727;42.600;23.028;2022-07-06T07:47:43;93777.94;;;22.76;100.00
11345;BME280;5727;42.600;23.028;2022-07-06T07:50:10;93777.41;;;22.54;100.00
11345;BME280;5727;42.600;23.028;2022-07-06T07:52:39;93784.25;;;22.59;100.00
11345;BME280;5727;42.600;23.028;2022-07-06T07:55:06;93779.72;;;22.12;100.00
11345;BME280;5727;42.600;23.028;2022-07-06T07:57:33;93783.63;;;22.04;100.00
11345;BME280;5727;42.600;23.028;2022-07-06T08:00:00;93781.69;;;22.08;100.00
11345;BME280;5727;42.600;23.028;2022-07-06T08:02:27;93782.47;;;22.05;100.00
11345;BME280;5727;42.600;23.028;2022-07-06T08:04:54;93785.75;;;22.19;100.00
11345;BME280;5727;42.600;23.028;2022-07-06T08:07:20;93794.09;;;22.25;100.00
11345;BME280;5727;42.600;23.028;2022-07-06T08:09:48;93785.31;;;22.28;100.00
11345;BME280;5727;42.600;23.028;2022-07-06T08:12:15;93785.75;;;22.60;100.00
11345;BME280;5727;42.600;23.028;2022-07-06T08:14:42;93778.47;;;22.94;100.00
11345;BME280;5727;42.600;23.028;2022-07-06T08:17:09;93781.88;;;23.25;100.00
11345;BME280;5727;42.600;23.028;2022-07-06T08:19:35;93790.19;;;23.34;98.53
11345;BME280;5727;42.600;23.028;2022-07-06T08:22:03;93792.22;;;22.93;100.00
11345;BME280;5727;42.600;23.028;2022-07-06T08:24:32;93797.44;;;22.36;100.00
11345;BME280;5727;42.600;23.028;2022-07-06T08:27:01;93785.50;;;22.07;100.00
11345;BME280;5727;42.600;23.028;2022-07-06T08:29:28;93791.03;;;21.86;100.00
11345;BME280;5727;42.600;23.028;2022-07-06T08:31:55;93786.97;;;22.15;100.00
11345;BME280;5727;42.600;23.028;2022-07-06T08:34:22;93779.75;;;22.49;100.00
11345;BME280;5727;42.600;23.028;2022-07-06T08:36:49;93788.16;;;22.47;100.00
11345;BME280;5727;42.600;23.028;2022-07-06T08:39:16;93790.06;;;22.47;100.00
11345;BME280;5727;42.600;23.028;2022-07-06T08:41:44;93798.13;;;22.77;100.00
11345;BME280;5727;42.600;23.028;2022-07-06T08:44:14;93804.59;;;22.80;99.59
11345;BME280;5727;42.600;23.028;2022-07-06T08:46:41;93797.88;;;22.68;100.00
11345;BME280;5727;42.600;23.028;2022-07-06T08:49:12;93799.41;;;22.65;100.00
11345;BME280;5727;42.600;23.028;2022-07-06T08:51:40;93803.94;;;22.72;99.88
11345;BME280;5727;42.600;23.028;2022-07-06T08:54:08;93801.94;;;22.80;100.00
11345;BME280;5727;42.600;23.028;2022-07-06T08:56:35;93809.28;;;22.72;97.52
11345;BME280;5727;42.600;23.028;2022-07-06T08:59:02;93809.53;;;22.44;98.47
11345;BME280;5727;42.600;23.028;2022-07-06T09:01:30;93807.66;;;22.41;100.00
11345;BME280;5727;42.600;23.028;2022-07-06T09:04:00;93805.84;;;22.31;100.00
11345;BME280;5727;42.600;23.028;2022-07-06T09:06:29;93807.88;;;22.20;100.00
11345;BME280;5727;42.600;23.028;2022-07-06T09:08:57;93815.13;;;22.19;100.00
11345;BME280;5727;42.600;23.028;2022-07-06T09:11:24;93805.84;;;22.31;100.00
11345;BME280;5727;42.600;23.028;2022-07-06T09:13:52;93809.06;;;22.52;100.00
11345;BME280;5727;42.600;23.028;2022-07-06T09:16:25;93820.41;;;22.23;100.00
11345;BME280;5727;42.600;23.028;2022-07-06T09:18:54;93822.06;;;22.10;100.00
11345;BME280;5727;42.600;23.028;2022-07-06T09:21:25;93819.16;;;21.94;100.00
11345;BME280;5727;42.600;23.028;2022-07-06T09:23:54;93822.19;;;21.96;100.00
11345;BME280;5727;42.600;23.028;2022-07-06T09:26:21;93832.69;;;22.17;100.00
11345;BME280;5727;42.600;23.028;2022-07-06T09:28:48;93832.38;;;22.08;100.00
11345;BME280;5727;42.600;23.028;2022-07-06T09:31:16;93815.84;;;22.23;100.00
11345;BME280;5727;42.600;23.028;2022-07-06T09:33:55;93813.44;;;22.36;100.00
11345;BME280;5727;42.600;23.028;2022-07-06T09:36:40;93805.72;;;22.45;100.00
11345;BME280;5727;42.600;23.028;2022-07-06T09:39:18;93799.97;;;22.84;99.47
11345;BME280;5727;42.600;23.028;2022-07-06T09:41:46;93807.50;;;23.22;96.69
11345;BME280;5727;42.600;23.028;2022-07-06T09:44:13;93790.03;;;23.44;93.70
11345;BME280;5727;42.600;23.028;2022-07-06T09:46:46;93811.53;;;23.37;94.12
11345;BME280;5727;42.600;23.028;2022-07-06T09:49:16;93802.47;;;22.98;95.61
11345;BME280;5727;42.600;23.028;2022-07-06T09:51:44;93808.16;;;23.03;96.57
11345;BME280;5727;42.600;23.028;2022-07-06T09:54:12;93800.53;;;23.32;93.97
11345;BME280;5727;42.600;23.028;2022-07-06T09:56:42;93803.78;;;22.83;95.29
11345;BME280;5727;42.600;23.028;2022-07-06T09:59:10;93802.09;;;22.65;95.51
11345;BME280;5727;42.600;23.028;2022-07-06T10:01:37;93793.16;;;22.79;97.64
11345;BME280;5727;42.600;23.028;2022-07-06T10:04:05;93801.25;;;22.72;95.43
11345;BME280;5727;42.600;23.028;2022-07-06T10:06:34;93791.34;;;22.69;97.63
11345;BME280;5727;42.600;23.028;2022-07-06T10:09:05;93786.38;;;22.71;96.91
11345;BME280;5727;42.600;23.028;2022-07-06T10:11:35;93779.78;;;23.09;97.51
11345;BME280;5727;42.600;23.028;2022-07-06T10:14:05;93791.47;;;22.92;94.69
11345;BME280;5727;42.600;23.028;2022-07-06T10:16:33;93783.44;;;22.92;93.91
11345;BME280;5727;42.600;23.028;2022-07-06T10:19:02;93788.25;;;23.04;94.17
11345;BME280;5727;42.600;23.028;2022-07-06T10:21:30;93789.88;;;22.98;92.10
11345;BME280;5727;42.600;23.028;2022-07-06T10:23:59;93783.06;;;22.94;93.96
11345;BME280;5727;42.600;23.028;2022-07-06T10:26:27;93778.53;;;23.17;95.62
11345;BME280;5727;42.600;23.028;2022-07-06T10:28:54;93771.78;;;23.39;92.93
11345;BME280;5727;42.600;23.028;2022-07-06T10:31:22;93777.84;;;23.43;91.12
11345;BME280;5727;42.600;23.028;2022-07-06T10:33:50;93773.41;;;23.33;89.64
11345;BME280;5727;42.600;23.028;2022-07-06T10:36:18;93781.28;;;23.67;91.84
11345;BME280;5727;42.600;23.028;2022-07-06T10:38:48;93770.66;;;23.87;89.13
11345;BME280;5727;42.600;23.028;2022-07-06T10:41:17;93763.22;;;24.21;90.08
11345;BME280;5727;42.600;23.028;2022-07-06T10:43:45;93768.81;;;24.69;87.17
11345;BME280;5727;42.600;23.028;2022-07-06T10:46:15;93766.31;;;24.82;85.89
11345;BME280;5727;42.600;23.028;2022-07-06T10:48:44;93778.16;;;24.61;83.24
11345;BME280;5727;42.600;23.028;2022-07-06T10:51:12;93783.38;;;23.79;87.03
11345;BME280;5727;42.600;23.028;2022-07-06T10:53:40;93799.38;;;23.83;86.40
11345;BME280;5727;42.600;23.028;2022-07-06T10:56:10;93777.41;;;23.72;87.58
11345;BME280;5727;42.600;23.028;2022-07-06T10:58:47;93787.72;;;23.46;88.38
11345;BME280;5727;42.600;23.028;2022-07-06T11:01:17;93785.66;;;23.27;88.10
11345;BME280;5727;42.600;23.028;2022-07-06T11:03:45;93778.13;;;23.49;87.92
11345;BME280;5727;42.600;23.028;2022-07-06T11:06:16;93775.25;;;23.36;87.03
11345;BME280;5727;42.600;23.028;2022-07-06T11:08:54;93767.25;;;23.59;87.93
11345;BME280;5727;42.600;23.028;2022-07-06T11:11:24;93756.94;;;24.08;85.75
11345;BME280;5727;42.600;23.028;2022-07-06T11:13:54;93769.75;;;24.20;84.07
11345;BME280;5727;42.600;23.028;2022-07-06T11:16:22;93762.53;;;24.36;83.57
11345;BME280;5727;42.600;23.028;2022-07-06T11:19:01;93762.75;;;24.26;85.03
11345;BME280;5727;42.600;23.028;2022-07-06T11:21:47;93771.88;;;24.28;83.79
11345;BME280;5727;42.600;23.028;2022-07-06T11:24:16;93781.59;;;24.19;82.10
11345;BME280;5727;42.600;23.028;2022-07-06T11:26:45;93764.78;;;23.95;83.06
11345;BME280;5727;42.600;23.028;2022-07-06T11:29:15;93766.94;;;23.81;83.21
11345;BME280;5727;42.600;23.028;2022-07-06T11:31:44;93760.13;;;23.99;83.94
11345;BME280;5727;42.600;23.028;2022-07-06T11:34:12;93746.75;;;24.22;83.32
11345;BME280;5727;42.600;23.028;2022-07-06T11:36:42;93751.00;;;24.59;82.17
11345;BME280;5727;42.600;23.028;2022-07-06T11:39:09;93749.03;;;24.83;78.11
11345;BME280;5727;42.600;23.028;2022-07-06T11:41:35;93739.59;;;25.14;78.03
11345;BME280;5727;42.600;23.028;2022-07-06T11:44:03;93735.88;;;26.08;73.01
11345;BME280;5727;42.600;23.028;2022-07-06T11:46:33;93724.03;;;26.91;69.77
11345;BME280;5727;42.600;23.028;2022-07-06T11:49:01;93726.13;;;26.71;68.53
11345;BME280;5727;42.600;23.028;2022-07-06T11:51:30;93722.63;;;25.69;73.33
11345;BME280;5727;42.600;23.028;2022-07-06T11:53:59;93721.44;;;25.86;72.97
11345;BME280;5727;42.600;23.028;2022-07-06T11:56:26;93717.50;;;27.68;66.03
11345;BME280;5727;42.600;23.028;2022-07-06T11:58:55;93705.50;;;28.28;62.78
11345;BME280;5727;42.600;23.028;2022-07-06T12:01:22;93704.25;;;28.20;62.27
11345;BME280;5727;42.600;23.028;2022-07-06T12:03:51;93707.38;;;27.22;66.71
11345;BME280;5727;42.600;23.028;2022-07-06T12:06:20;93706.59;;;26.96;67.77
11345;BME280;5727;42.600;23.028;2022-07-06T12:08:48;93694.22;;;27.74;65.99
11345;BME280;5727;42.600;23.028;2022-07-06T12:11:23;93706.19;;;27.73;65.64
11345;BME280;5727;42.600;23.028;2022-07-06T12:13:52;93696.19;;;28.08;64.58
11345;BME280;5727;42.600;23.028;2022-07-06T12:16:19;93700.16;;;29.02;59.05
11345;BME280;5727;42.600;23.028;2022-07-06T12:18:48;93709.34;;;28.06;59.99
11345;BME280;5727;42.600;23.028;2022-07-06T12:21:18;93709.53;;;27.64;59.75
11345;BME280;5727;42.600;23.028;2022-07-06T12:23:49;93713.47;;;27.97;60.93
11345;BME280;5727;42.600;23.028;2022-07-06T12:26:18;93705.75;;;29.38;57.28
11345;BME280;5727;42.600;23.028;2022-07-06T12:28:46;93706.94;;;29.77;55.39
11345;BME280;5727;42.600;23.028;2022-07-06T12:31:31;93702.06;;;29.63;56.32
11345;BME280;5727;42.600;23.028;2022-07-06T12:33:58;93707.75;;;30.50;52.83
11345;BME280;5727;42.600;23.028;2022-07-06T12:36:26;93694.09;;;29.50;54.53
11345;BME280;5727;42.600;23.028;2022-07-06T12:38:53;93696.25;;;28.72;58.33
11345;BME280;5727;42.600;23.028;2022-07-06T12:41:31;93688.97;;;28.39;59.90
11345;BME280;5727;42.600;23.028;2022-07-06T12:44:08;93692.56;;;27.89;60.91
11345;BME280;5727;42.600;23.028;2022-07-06T12:46:37;93681.50;;;28.43;58.97
11345;BME280;5727;42.600;23.028;2022-07-06T12:49:14;93690.41;;;28.31;61.16
11345;BME280;5727;42.600;23.028;2022-07-06T12:51:59;93686.53;;;27.51;59.90
11345;BME280;5727;42.600;23.028;2022-07-06T12:54:29;93685.22;;;27.17;62.92
11345;BME280;5727;42.600;23.028;2022-07-06T12:57:04;93680.41;;;27.97;60.36
11345;BME280;5727;42.600;23.028;2022-07-06T12:59:33;93677.59;;;28.22;57.07